< < Back
Terminal Aerodrome Forecast


Current Version              Previous Versions:   1  2  3  4  5  6  7  8  9  

Terminal Aerodrome Forecast

467
FTUS44 KBMX 241500 AAA
TAFANB
TAF AMD
KANB 241524Z 2415/2512 23012G23KT P6SM SCT025
      TEMPO 2416/2418 BKN025
     FM241800 26010G20KT P6SM BKN025
     FM242300 28005KT P6SM SCT150=

Latest METAR

399
SAUS70 KWBC 231800 RRX
MTRANB
METAR KANB 241753Z AUTO 26014KT 10SM CLR 22/11 A2981 RMK AO2 SLP089
T02220106 10228 20161 50001


USA.gov is the U.S. government's official web portal to all federal, state and local government web resources and services.